Wilson Heron — 9HJW9 — position and weather

sailwx.info

Track history (hours):
 
Tides and Currents Weather Stations Pressure Air Temp Water Temp Dewpoint Dewpoint Depression Visibility Wind Speed Wind Dir Waves Ship Positions

Wilson Heron

Last reported at 2017-Jan-20 23:33 UTC. Time now 2017-Jan-21 02:06 UTC.
Position N 39°37' W 000°09'.

Length 91 m; draft 6.1 m.

Type: Cargo ship. MMSI: 249075000.

Date/timePositionNaut miles runAvg speedWind from/ knotsBaromVisibWave heightAir tempDewpointWater temp
2017-Jan-20 23:33N 39°37' W 000°09'112 5.3
2017-Jan-20 02:33N 37°45' W 000°21'8 8.5
2017-Jan-20 01:34N 37°38' W 000°27'9 8.7
2017-Jan-20 00:33N 37°31' W 000°33'9 8.5
2017-Jan-19 23:33N 37°25' W 000°42'9 8.9
2017-Jan-19 22:33N 37°20' W 000°50'226 6.4
2017-Jan-18 11:19N 35°56' W 005°11'5 7.1
2017-Jan-18 10:33N 35°55' W 005°18'2 1.5
2017-Jan-18 09:33N 35°54' W 005°19'0 0.0
2017-Jan-18 08:33N 35°54' W 005°19'0 0.0
2017-Jan-18 07:33N 35°54' W 005°19'0 0.3
2017-Jan-18 06:33N 35°54' W 005°19'2 2.3
2017-Jan-18 05:33N 35°56' W 005°20'1111.3
2017-Jan-18 04:33N 35°56' W 005°34'242 7.8
2017-Jan-16 21:21N 38°00' W 009°54'22 9.7
2017-Jan-16 19:07N 38°21' W 010°00'5 9.6
2017-Jan-16 18:33N 38°27' W 010°02'9 9.2
2017-Jan-16 17:33N 38°36' W 010°04'9 9.4
2017-Jan-16 16:33N 38°45' W 010°06'9 9.2
2017-Jan-16 15:33N 38°54' W 010°06'9 8.8
2017-Jan-16 14:32N 39°03' W 010°06'9 9.3
2017-Jan-16 13:33N 39°12' W 010°06'  
2017-Jan-13 09:33N 49°55' W 005°12'6 5.8
2017-Jan-13 08:33N 49°56' W 005°03'6 6.2
2017-Jan-13 07:33N 49°58' W 004°54'6 6.3
2017-Jan-13 06:33N 50°00' W 004°45'7 6.9
2017-Jan-13 05:33N 50°03' W 004°35'5 5.4
2017-Jan-13 04:33N 50°04' W 004°27'5 5.0
2017-Jan-13 03:33N 50°05' W 004°19'5 5.1
2017-Jan-13 02:33N 50°06' W 004°11'5 5.3
2017-Jan-13 01:33N 50°07' W 004°03'5 5.2
2017-Jan-13 00:32N 50°08' W 003°55'16 5.3
2017-Jan-12 21:31N 50°12' W 003°31'4 4.6
2017-Jan-12 20:33N 50°15' W 003°25'4 4.2
2017-Jan-12 19:33N 50°17' W 003°20'57 8.0
2017-Jan-12 12:28N 50°25' W 001°52'2210.7
2017-Jan-12 10:24N 50°27' W 001°17'7 8.0
2017-Jan-12 09:31N 50°27' W 001°07'10 6.8
2017-Jan-12 08:05N 50°28' W 000°51'5 6.3
2017-Jan-12 07:20N 50°28' W 000°44'4 4.6
2017-Jan-12 06:33N 50°29' W 000°38'4 4.1
2017-Jan-12 05:33N 50°29' W 000°32'6 5.6
2017-Jan-12 04:33N 50°29' W 000°23'6 6.4
2017-Jan-12 03:33N 50°29' W 000°13'6 6.4
2017-Jan-12 02:33N 50°31' W 000°03'6 6.0
2017-Jan-12 01:31N 50°32' E 000°06'6 5.8
2017-Jan-12 00:33N 50°34' E 000°15'6 6.0
2017-Jan-11 23:33N 50°35' E 000°24'6 5.7
2017-Jan-11 22:33N 50°37' E 000°33'5 4.9
2017-Jan-11 21:33N 50°39' E 000°39'5 4.8
2017-Jan-11 20:33N 50°42' E 000°45'5 5.2
2017-Jan-11 19:33N 50°45' E 000°51'10 7.0
2017-Jan-11 18:05N 50°52' E 001°04'5 8.6
2017-Jan-11 17:30N 50°55' E 001°10'8 8.9
2017-Jan-11 16:33N 51°00' E 001°21'9 9.3
2017-Jan-11 15:33N 51°06' E 001°32'8 8.4
2017-Jan-11 14:33N 51°12' E 001°42'7 7.5
2017-Jan-11 13:33N 51°18' E 001°49'7 6.9
2017-Jan-11 12:33N 51°24' E 001°54'7 6.9
2017-Jan-11 11:33N 51°30' E 001°60'8 7.8
2017-Jan-11 10:32N 51°36' E 002°08'63 8.7
2017-Jan-11 03:13N 52°03' E 003°41'6 8.8
2017-Jan-11 02:33N 52°03' E 003°50'8 7.9
2017-Jan-11 01:33N 51°60' E 004°02'9 9.3
2017-Jan-11 00:33N 51°54' E 004°14'  
Track history (hours):
 
Tides and Currents Weather Stations Pressure Air Temp Water Temp Dewpoint Dewpoint Depression Visibility Wind Speed Wind Dir Waves Ship Positions

Wilson Heron

Last reported at 2017-Jan-20 23:33 UTC. Time now 2017-Jan-21 02:06 UTC.
Position N 39°37' W 000°09'.

Length 91 m; draft 6.1 m.

Type: Cargo ship. MMSI: 249075000.

Date/timePositionNaut miles runAvg speedWind from/ knotsBaromVisibWave heightAir tempDewpointWater temp
2017-Jan-20 23:33N 39°37' W 000°09'112 5.3
2017-Jan-20 02:33N 37°45' W 000°21'8 8.5
2017-Jan-20 01:34N 37°38' W 000°27'9 8.7
2017-Jan-20 00:33N 37°31' W 000°33'9 8.5
2017-Jan-19 23:33N 37°25' W 000°42'9 8.9
2017-Jan-19 22:33N 37°20' W 000°50'226 6.4
2017-Jan-18 11:19N 35°56' W 005°11'5 7.1
2017-Jan-18 10:33N 35°55' W 005°18'2 1.5
2017-Jan-18 09:33N 35°54' W 005°19'0 0.0
2017-Jan-18 08:33N 35°54' W 005°19'0 0.0
2017-Jan-18 07:33N 35°54' W 005°19'0 0.3
2017-Jan-18 06:33N 35°54' W 005°19'2 2.3
2017-Jan-18 05:33N 35°56' W 005°20'1111.3
2017-Jan-18 04:33N 35°56' W 005°34'242 7.8
2017-Jan-16 21:21N 38°00' W 009°54'22 9.7
2017-Jan-16 19:07N 38°21' W 010°00'5 9.6
2017-Jan-16 18:33N 38°27' W 010°02'9 9.2
2017-Jan-16 17:33N 38°36' W 010°04'9 9.4
2017-Jan-16 16:33N 38°45' W 010°06'9 9.2
2017-Jan-16 15:33N 38°54' W 010°06'9 8.8
2017-Jan-16 14:32N 39°03' W 010°06'9 9.3
2017-Jan-16 13:33N 39°12' W 010°06'  
2017-Jan-13 09:33N 49°55' W 005°12'6 5.8
2017-Jan-13 08:33N 49°56' W 005°03'6 6.2
2017-Jan-13 07:33N 49°58' W 004°54'6 6.3
2017-Jan-13 06:33N 50°00' W 004°45'7 6.9
2017-Jan-13 05:33N 50°03' W 004°35'5 5.4
2017-Jan-13 04:33N 50°04' W 004°27'5 5.0
2017-Jan-13 03:33N 50°05' W 004°19'5 5.1
2017-Jan-13 02:33N 50°06' W 004°11'5 5.3
2017-Jan-13 01:33N 50°07' W 004°03'5 5.2
2017-Jan-13 00:32N 50°08' W 003°55'16 5.3
2017-Jan-12 21:31N 50°12' W 003°31'4 4.6
2017-Jan-12 20:33N 50°15' W 003°25'4 4.2
2017-Jan-12 19:33N 50°17' W 003°20'57 8.0
2017-Jan-12 12:28N 50°25' W 001°52'2210.7
2017-Jan-12 10:24N 50°27' W 001°17'7 8.0
2017-Jan-12 09:31N 50°27' W 001°07'10 6.8
2017-Jan-12 08:05N 50°28' W 000°51'5 6.3
2017-Jan-12 07:20N 50°28' W 000°44'4 4.6
2017-Jan-12 06:33N 50°29' W 000°38'4 4.1
2017-Jan-12 05:33N 50°29' W 000°32'6 5.6
2017-Jan-12 04:33N 50°29' W 000°23'6 6.4
2017-Jan-12 03:33N 50°29' W 000°13'6 6.4
2017-Jan-12 02:33N 50°31' W 000°03'6 6.0
2017-Jan-12 01:31N 50°32' E 000°06'6 5.8
2017-Jan-12 00:33N 50°34' E 000°15'6 6.0
2017-Jan-11 23:33N 50°35' E 000°24'6 5.7
2017-Jan-11 22:33N 50°37' E 000°33'5 4.9
2017-Jan-11 21:33N 50°39' E 000°39'5 4.8
2017-Jan-11 20:33N 50°42' E 000°45'5 5.2
2017-Jan-11 19:33N 50°45' E 000°51'10 7.0
2017-Jan-11 18:05N 50°52' E 001°04'5 8.6
2017-Jan-11 17:30N 50°55' E 001°10'8 8.9
2017-Jan-11 16:33N 51°00' E 001°21'9 9.3
2017-Jan-11 15:33N 51°06' E 001°32'8 8.4
2017-Jan-11 14:33N 51°12' E 001°42'7 7.5
2017-Jan-11 13:33N 51°18' E 001°49'7 6.9
2017-Jan-11 12:33N 51°24' E 001°54'7 6.9
2017-Jan-11 11:33N 51°30' E 001°60'8 7.8
2017-Jan-11 10:32N 51°36' E 002°08'63 8.7
2017-Jan-11 03:13N 52°03' E 003°41'6 8.8
2017-Jan-11 02:33N 52°03' E 003°50'8 7.9
2017-Jan-11 01:33N 51°60' E 004°02'9 9.3
2017-Jan-11 00:33N 51°54' E 004°14'  

Dump ship's entire track history